Time;durP1;ratioP1;P1;durP2;ratioP2;P2;SDS_P1;SDS_P2;PMS_P1;PMS_P2;Temp;Humidity;BMP_temperature;BMP_pressure;BME280_temperature;BME280_humidity;BME280_pressure;Samples;Min_cycle;Max_cycle;Signal;HPM_P1;HPM_P2
2023/06/09 00:00:07;;;;;;;1.35;1.35;;;18.80;80.70;;;;;;5093686;28;20303;-78
2023/06/09 00:02:33;;;;;;;2.65;0.95;;;18.80;79.80;;;;;;5088956;28;20174;-78
2023/06/09 00:04:59;;;;;;;1.35;1.35;;;18.80;79.50;;;;;;5089138;28;20162;-76
2023/06/09 00:07:26;;;;;;;1.10;1.10;;;18.70;79.80;;;;;;5092306;28;20259;-77
2023/06/09 00:09:52;;;;;;;2.53;1.00;;;18.70;80.30;;;;;;5097269;28;20181;-78
2023/06/09 00:12:18;;;;;;;2.08;1.02;;;18.60;80.20;;;;;;5102455;28;20178;-78
2023/06/09 00:14:44;;;;;;;2.40;0.88;;;18.60;79.90;;;;;;5106675;28;20596;-78
2023/06/09 00:17:09;;;;;;;0.88;0.88;;;18.50;79.80;;;;;;5091699;28;20182;-78
2023/06/09 00:19:37;;;;;;;0.80;0.80;;;18.50;79.70;;;;;;5096063;28;20178;-78
2023/06/09 00:22:02;;;;;;;0.85;0.85;;;18.50;79.80;;;;;;5071972;28;20193;-78
2023/06/09 00:24:28;;;;;;;1.08;1.08;;;18.40;79.40;;;;;;5118620;27;20177;-79
2023/06/09 00:26:54;;;;;;;1.33;1.23;;;18.40;79.60;;;;;;5094729;28;20185;-79
2023/06/09 00:29:24;;;;;;;3.25;0.93;;;18.40;80.00;;;;;;5097710;28;20190;-78
2023/06/09 00:31:49;;;;;;;2.20;1.05;;;18.40;79.80;;;;;;5094412;28;20186;-78
2023/06/09 00:34:15;;;;;;;1.02;0.95;;;18.40;79.70;;;;;;5087515;28;20270;-79
2023/06/09 00:36:41;;;;;;;1.10;1.10;;;;;;;;;;5094485;28;20182;-78
2023/06/09 00:39:09;;;;;;;1.75;0.98;;;18.30;79.90;;;;;;5099765;28;20239;-78
2023/06/09 00:41:39;;;;;;;1.00;1.00;;;18.40;79.90;;;;;;5083929;28;20238;-78
2023/06/09 00:44:05;;;;;;;0.88;0.88;;;18.30;79.80;;;;;;5097105;28;20242;-78
2023/06/09 00:46:32;;;;;;;3.05;1.20;;;18.30;80.30;;;;;;5092468;28;20257;-77
2023/06/09 00:48:58;;;;;;;2.45;1.08;;;18.30;80.40;;;;;;5097317;28;20178;-78
2023/06/09 00:51:24;;;;;;;1.27;0.90;;;18.30;80.40;;;;;;5093505;28;20189;-78
2023/06/09 00:53:50;;;;;;;1.17;1.08;;;18.30;80.20;;;;;;5091461;28;20647;-78
2023/06/09 00:56:18;;;;;;;1.20;1.20;;;18.20;80.10;;;;;;5095567;28;20663;-78
2023/06/09 00:58:44;;;;;;;1.20;1.20;;;18.20;80.10;;;;;;5098471;28;20175;-77
2023/06/09 01:01:09;;;;;;;1.23;1.13;;;18.10;80.00;;;;;;5096330;28;20177;-77
2023/06/09 01:03:38;;;;;;;3.22;1.13;;;18.10;80.00;;;;;;5097692;28;20234;-77
2023/06/09 01:06:30;;;;;;;1.70;0.93;;;18.00;79.90;;;;;;5097304;28;20629;-77
2023/06/09 01:09:02;;;;;;;1.45;0.80;;;17.90;79.70;;;;;;5078602;28;20232;-77
2023/06/09 01:11:58;;;;;;;1.00;1.00;;;17.90;80.10;;;;;;5093902;28;20182;-77
2023/06/09 01:14:42;;;;;;;0.70;0.70;;;17.80;80.80;;;;;;5092825;28;20228;-77
2023/06/09 01:17:18;;;;;;;3.03;0.85;;;17.80;80.30;;;;;;5094864;28;20255;-78
2023/06/09 01:19:54;;;;;;;0.90;0.90;;;17.70;80.40;;;;;;5081754;28;20681;-78
2023/06/09 01:22:57;;;;;;;0.80;0.80;;;17.70;80.60;;;;;;5084061;28;20189;-79
2023/06/09 01:25:34;;;;;;;1.33;0.98;;;17.60;80.60;;;;;;5096132;28;20184;-78
2023/06/09 01:28:12;;;;;;;1.58;0.90;;;17.60;80.90;;;;;;5096525;28;20185;-77
2023/06/09 01:30:40;;;;;;;0.80;0.80;;;17.50;80.50;;;;;;5073148;28;20187;-78
2023/06/09 01:33:11;;;;;;;1.17;1.17;;;17.50;80.80;;;;;;5095371;28;20213;-77
2023/06/09 01:35:39;;;;;;;0.90;0.90;;;17.50;80.70;;;;;;5098652;28;20269;-78
2023/06/09 01:38:06;;;;;;;0.90;0.90;;;17.40;80.50;;;;;;5093305;28;20824;-78
2023/06/09 01:40:33;;;;;;;0.88;0.88;;;17.40;80.40;;;;;;5094681;28;20224;-78
2023/06/09 01:43:02;;;;;;;0.85;0.85;;;17.40;80.50;;;;;;5096089;28;20212;-77
2023/06/09 01:45:27;;;;;;;0.98;0.98;;;17.30;80.80;;;;;;5095895;28;20178;-77
2023/06/09 01:47:54;;;;;;;2.25;1.20;;;17.30;80.50;;;;;;5095689;28;20191;-78
2023/06/09 01:50:38;;;;;;;0.90;0.90;;;17.30;80.50;;;;;;5097786;28;20178;-77
2023/06/09 01:53:15;;;;;;;0.60;0.60;;;17.20;80.00;;;;;;5088285;28;20598;-77
2023/06/09 01:56:10;;;;;;;1.35;0.88;;;17.20;80.00;;;;;;5087648;28;20182;-77
2023/06/09 01:58:53;;;;;;;0.68;0.68;;;17.20;80.20;;;;;;5096975;28;20278;-77
2023/06/09 02:01:21;;;;;;;1.63;0.80;;;17.20;79.80;;;;;;5088245;28;20181;-77
2023/06/09 02:03:49;;;;;;;1.08;1.08;;;17.10;80.00;;;;;;5092153;28;20231;-77
2023/06/09 02:06:17;;;;;;;1.65;1.00;;;17.10;79.80;;;;;;5076558;28;20174;-78
2023/06/09 02:08:43;;;;;;;2.15;1.00;;;17.10;79.80;;;;;;5097213;28;20230;-77
2023/06/09 02:11:10;;;;;;;0.88;0.88;;;17.00;80.00;;;;;;5073543;28;20174;-77
2023/06/09 02:13:36;;;;;;;0.90;0.90;;;17.10;79.90;;;;;;5094397;28;20213;-77
2023/06/09 02:16:02;;;;;;;0.55;0.55;;;17.00;79.90;;;;;;5095918;28;20189;-77
2023/06/09 02:18:27;;;;;;;1.10;1.10;;;17.00;79.90;;;;;;5072716;28;20178;-78
2023/06/09 02:20:53;;;;;;;1.20;0.60;;;17.00;80.00;;;;;;5092031;28;20182;-78
2023/06/09 02:23:21;;;;;;;1.00;1.00;;;17.00;80.40;;;;;;5091622;28;20282;-78
2023/06/09 02:25:47;;;;;;;0.95;0.90;;;16.90;80.80;;;;;;5092070;28;20224;-77
2023/06/09 02:28:13;;;;;;;2.25;0.70;;;16.90;81.10;;;;;;5093057;28;20206;-78
2023/06/09 02:30:39;;;;;;;1.65;1.00;;;16.80;81.40;;;;;;5077894;28;20660;-78
2023/06/09 02:33:06;;;;;;;1.08;1.08;;;16.70;81.60;;;;;;5091143;28;20225;-78
2023/06/09 02:35:32;;;;;;;0.98;0.95;;;16.80;81.60;;;;;;5073700;28;20655;-78
2023/06/09 02:37:58;;;;;;;0.85;0.85;;;16.70;81.80;;;;;;5093695;28;20318;-78
2023/06/09 02:40:26;;;;;;;0.95;0.80;;;16.70;81.80;;;;;;5096350;28;20205;-78
2023/06/09 02:42:52;;;;;;;0.80;0.80;;;16.60;81.90;;;;;;5095475;28;20191;-77
2023/06/09 02:45:18;;;;;;;0.90;0.90;;;16.50;82.10;;;;;;5099151;28;20204;-78
2023/06/09 02:47:44;;;;;;;0.90;0.90;;;16.50;82.40;;;;;;5089068;28;20915;-78
2023/06/09 02:50:10;;;;;;;1.40;0.88;;;16.40;82.40;;;;;;5077319;28;20613;-77
2023/06/09 02:52:35;;;;;;;0.95;0.95;;;16.40;82.40;;;;;;5074182;28;20564;-77
2023/06/09 02:55:03;;;;;;;1.05;1.05;;;16.30;82.70;;;;;;5074546;28;20178;-78
2023/06/09 02:57:29;;;;;;;0.80;0.80;;;16.30;82.70;;;;;;5079342;28;20282;-78
2023/06/09 02:59:54;;;;;;;3.22;0.90;;;16.30;82.90;;;;;;5096734;28;21444;-78
2023/06/09 03:02:20;;;;;;;1.33;1.23;;;16.20;82.80;;;;;;5099008;28;20190;-77
2023/06/09 03:04:46;;;;;;;0.93;0.93;;;16.20;82.70;;;;;;5076914;28;20186;-78
2023/06/09 03:07:16;;;;;;;1.58;1.00;;;16.20;82.40;;;;;;5077015;28;20244;-78
2023/06/09 03:09:42;;;;;;;0.75;0.75;;;16.20;82.20;;;;;;5091462;28;20701;-77
2023/06/09 03:12:09;;;;;;;2.10;1.15;;;16.20;82.20;;;;;;5099471;28;20174;-77
2023/06/09 03:14:35;;;;;;;1.20;1.20;;;16.20;82.10;;;;;;5094130;28;20247;-79
2023/06/09 03:17:01;;;;;;;0.88;0.88;;;16.20;82.20;;;;;;5088344;28;20174;-77
2023/06/09 03:19:27;;;;;;;1.40;1.00;;;16.20;82.40;;;;;;5080788;28;20201;-78
2023/06/09 03:21:53;;;;;;;1.00;1.00;;;16.20;82.40;;;;;;5086190;28;20179;-78
2023/06/09 03:24:19;;;;;;;1.17;1.17;;;16.30;82.20;;;;;;5075209;28;20182;-78
2023/06/09 03:26:48;;;;;;;1.25;1.10;;;16.30;82.20;;;;;;5075118;28;20182;-78
2023/06/09 03:29:14;;;;;;;0.88;0.88;;;16.30;82.10;;;;;;5099421;28;20255;-78
2023/06/09 03:31:41;;;;;;;0.80;0.80;;;16.30;82.20;;;;;;5093024;28;20188;-78
2023/06/09 03:34:07;;;;;;;0.82;0.82;;;16.30;82.10;;;;;;5093511;28;20271;-78
2023/06/09 03:36:35;;;;;;;1.23;1.13;;;16.40;82.10;;;;;;5088611;28;20187;-77
2023/06/09 03:39:01;;;;;;;1.27;1.17;;;16.40;82.00;;;;;;5097524;28;20174;-77
2023/06/09 03:41:27;;;;;;;0.93;0.90;;;16.40;81.90;;;;;;5093135;28;20610;-77
2023/06/09 03:43:52;;;;;;;1.88;0.93;;;16.40;82.00;;;;;;5095345;28;20190;-77
2023/06/09 03:46:18;;;;;;;0.93;0.93;;;16.40;82.00;;;;;;5090400;28;20253;-77
2023/06/09 03:48:44;;;;;;;1.00;1.00;;;16.40;81.80;;;;;;5085942;28;20324;-78
2023/06/09 03:51:10;;;;;;;1.52;1.05;;;16.40;81.70;;;;;;5091786;28;20191;-77
2023/06/09 03:53:36;;;;;;;1.45;1.30;;;16.40;81.90;;;;;;5092855;28;20230;-79
2023/06/09 03:56:02;;;;;;;0.95;0.95;;;16.30;83.50;;;;;;5094696;28;20268;-79
2023/06/09 03:58:28;;;;;;;1.20;1.20;;;16.20;83.30;;;;;;5091402;28;20568;-77
2023/06/09 04:00:54;;;;;;;1.38;1.27;;;16.30;82.80;;;;;;5095446;28;20231;-77
2023/06/09 04:03:22;;;;;;;1.02;1.02;;;16.40;82.50;;;;;;5092088;28;20187;-77
2023/06/09 04:05:48;;;;;;;1.65;1.00;;;16.50;82.40;;;;;;5088264;28;20170;-77
2023/06/09 04:08:14;;;;;;;1.15;1.15;;;16.50;82.20;;;;;;5091616;28;20239;-77
2023/06/09 04:10:41;;;;;;;0.95;0.95;;;16.60;82.10;;;;;;5091153;28;20174;-77
2023/06/09 04:13:08;;;;;;;0.95;0.95;;;16.60;82.00;;;;;;5087709;28;20213;-77
2023/06/09 04:15:34;;;;;;;1.00;0.90;;;16.70;82.00;;;;;;5084318;28;20201;-77
2023/06/09 04:18:01;;;;;;;0.85;0.82;;;16.70;82.10;;;;;;5088101;28;20174;-79
2023/06/09 04:20:26;;;;;;;0.80;0.80;;;16.80;82.00;;;;;;5078074;28;20610;-78
2023/06/09 04:22:54;;;;;;;3.17;1.20;;;16.80;82.10;;;;;;5085379;28;20174;-78
2023/06/09 04:25:25;;;;;;;3.38;1.30;;;16.80;81.90;;;;;;5087945;28;20608;-79
2023/06/09 04:27:52;;;;;;;1.08;1.08;;;16.90;81.80;;;;;;5087846;28;20170;-79
2023/06/09 04:30:19;;;;;;;0.98;0.98;;;16.90;81.60;;;;;;5089724;28;20197;-78
2023/06/09 04:32:44;;;;;;;1.00;1.00;;;16.90;81.20;;;;;;5089523;28;20201;-79
2023/06/09 04:35:10;;;;;;;1.20;0.95;;;17.00;81.20;;;;;;5089841;28;20174;-78
2023/06/09 04:37:36;;;;;;;0.93;0.93;;;17.00;81.30;;;;;;5091212;28;20179;-77
2023/06/09 04:40:03;;;;;;;2.20;1.13;;;17.00;81.60;;;;;;5075212;28;20190;-78
2023/06/09 04:42:29;;;;;;;1.23;1.13;;;17.10;81.50;;;;;;5091126;28;20202;-77
2023/06/09 04:44:56;;;;;;;2.53;1.33;;;17.10;81.50;;;;;;5085737;28;20209;-78
2023/06/09 04:47:24;;;;;;;1.88;0.80;;;17.10;80.90;;;;;;5070838;28;20236;-77
2023/06/09 04:49:50;;;;;;;1.08;1.00;;;17.20;80.90;;;;;;5071203;28;20735;-77
2023/06/09 04:52:20;;;;;;;2.03;1.50;;;17.20;81.10;;;;;;5089469;28;20249;-77
2023/06/09 04:54:46;;;;;;;1.20;1.00;;;17.20;81.00;;;;;;5080257;28;20625;-75
2023/06/09 04:57:11;;;;;;;1.08;1.08;;;17.30;80.80;;;;;;5088231;28;20178;-77
2023/06/09 04:59:41;;;;;;;0.95;0.95;;;17.30;80.60;;;;;;5090619;28;20268;-76
2023/06/09 05:02:08;;;;;;;0.93;0.93;;;17.40;80.40;;;;;;5090245;28;21784;-76
2023/06/09 05:04:34;;;;;;;1.30;1.20;;;17.40;80.40;;;;;;5073509;28;20213;-76
2023/06/09 05:07:01;;;;;;;1.02;1.02;;;17.50;80.10;;;;;;5091357;28;20174;-76
2023/06/09 05:09:27;;;;;;;1.42;1.42;;;17.50;80.10;;;;;;5092068;28;20269;-76
2023/06/09 05:11:53;;;;;;;1.13;1.13;;;17.60;79.80;;;;;;5091345;28;20257;-75
2023/06/09 05:14:18;;;;;;;1.00;1.00;;;17.60;79.90;;;;;;5091614;28;20206;-76
2023/06/09 05:16:45;;;;;;;4.88;1.10;;;17.60;79.60;;;;;;5090798;28;20189;-75
2023/06/09 05:19:11;;;;;;;1.35;1.35;;;17.70;79.80;;;;;;5075783;28;20269;-76
2023/06/09 05:21:37;;;;;;;1.83;1.10;;;17.70;79.10;;;;;;5100667;28;20655;-76
2023/06/09 05:24:03;;;;;;;1.33;1.20;;;17.70;78.70;;;;;;5091351;28;20193;-74
2023/06/09 05:26:29;;;;;;;1.10;1.10;;;17.80;79.30;;;;;;5092836;28;20217;-75
2023/06/09 05:28:55;;;;;;;1.02;1.02;;;17.80;79.40;;;;;;5098863;28;20178;-76
2023/06/09 05:31:21;;;;;;;1.27;1.27;;;17.90;79.30;;;;;;5092502;28;20169;-77
2023/06/09 05:33:46;;;;;;;0.88;0.88;;;17.90;79.00;;;;;;5106096;27;20263;-76
2023/06/09 05:36:12;;;;;;;0.93;0.93;;;17.90;78.80;;;;;;5089874;28;20239;-79
2023/06/09 05:38:38;;;;;;;0.98;0.98;;;18.00;78.80;;;;;;5092747;28;20274;-80
2023/06/09 05:41:04;;;;;;;6.35;1.45;;;18.00;78.40;;;;;;5092321;28;20178;-78
2023/06/09 05:43:30;;;;;;;1.58;1.00;;;18.10;78.70;;;;;;5091930;28;20205;-79
2023/06/09 05:45:57;;;;;;;1.10;1.10;;;18.10;79.10;;;;;;5091765;28;20678;-77
2023/06/09 05:48:22;;;;;;;1.10;1.10;;;18.20;78.80;;;;;;5092514;28;20312;-77
2023/06/09 05:50:48;;;;;;;1.60;1.20;;;18.20;78.70;;;;;;5093516;28;20253;-77
2023/06/09 05:53:17;;;;;;;1.10;1.10;;;18.20;78.90;;;;;;5107916;28;20206;-76
2023/06/09 05:55:45;;;;;;;1.35;1.33;;;18.30;78.70;;;;;;5087923;28;20179;-76
2023/06/09 05:58:13;;;;;;;1.27;1.17;;;18.20;76.90;;;;;;5101345;28;20201;-76
2023/06/09 06:00:39;;;;;;;2.30;1.00;;;18.30;77.00;;;;;;5073746;28;20192;-75
2023/06/09 06:03:08;;;;;;;1.25;1.25;;;18.30;77.80;;;;;;5098123;28;20194;-78
2023/06/09 06:05:33;;;;;;;1.30;1.25;;;18.40;77.70;;;;;;5102491;28;20178;-76
2023/06/09 06:08:00;;;;;;;2.08;1.30;;;18.50;77.90;;;;;;5099678;28;20222;-77
2023/06/09 06:10:26;;;;;;;1.20;1.20;;;18.60;77.90;;;;;;5091105;28;20202;-75
2023/06/09 06:12:53;;;;;;;1.08;1.08;;;18.60;77.70;;;;;;5091631;28;20222;-75
2023/06/09 06:15:18;;;;;;;2.22;1.33;;;18.60;77.50;;;;;;5092329;28;20178;-75
2023/06/09 06:17:44;;;;;;;1.10;1.10;;;18.70;77.30;;;;;;5091672;28;20253;-77
2023/06/09 06:20:12;;;;;;;1.08;1.08;;;18.80;77.50;;;;;;5091569;28;20208;-76
2023/06/09 06:22:39;;;;;;;1.08;1.08;;;18.80;77.60;;;;;;5092108;28;20170;-76
2023/06/09 06:25:05;;;;;;;1.33;1.30;;;18.90;77.50;;;;;;5076093;28;20197;-77
2023/06/09 06:27:31;;;;;;;1.42;1.33;;;19.00;77.60;;;;;;5075862;28;20243;-78
2023/06/09 06:29:57;;;;;;;1.42;1.40;;;19.00;77.50;;;;;;5071787;28;20221;-77
2023/06/09 06:32:22;;;;;;;1.20;1.20;;;19.10;77.40;;;;;;5094052;28;20182;-77
2023/06/09 06:34:48;;;;;;;1.35;1.08;;;19.10;77.50;;;;;;5091139;28;20674;-77
2023/06/09 06:37:14;;;;;;;1.63;1.63;;;19.20;77.20;;;;;;5092950;28;20205;-77
2023/06/09 06:39:39;;;;;;;1.52;1.42;;;19.20;76.10;;;;;;5072768;28;20871;-77
2023/06/09 06:42:06;;;;;;;1.15;1.15;;;19.30;76.60;;;;;;5086390;28;20183;-76
2023/06/09 06:44:31;;;;;;;1.33;1.23;;;19.40;76.60;;;;;;5095207;28;20186;-77
2023/06/09 06:46:57;;;;;;;2.40;1.30;;;19.30;76.10;;;;;;5095123;28;20554;-76
2023/06/09 06:49:22;;;;;;;0.82;0.82;;;19.40;76.40;;;;;;5087801;28;20548;-76
2023/06/09 06:51:48;;;;;;;1.02;1.02;;;19.40;75.90;;;;;;5071271;28;20177;-78
2023/06/09 06:54:16;;;;;;;1.13;1.13;;;19.40;75.60;;;;;;5091065;28;20199;-76
2023/06/09 06:56:41;;;;;;;1.40;1.30;;;19.40;75.50;;;;;;5111417;27;20167;-77
2023/06/09 06:59:07;;;;;;;1.30;1.02;;;19.50;75.90;;;;;;5092476;28;20189;-76
2023/06/09 07:01:33;;;;;;;1.70;1.60;;;19.60;75.30;;;;;;5073376;28;20166;-76
2023/06/09 07:03:59;;;;;;;1.83;1.40;;;19.70;75.10;;;;;;5095265;28;20174;-77
2023/06/09 07:06:25;;;;;;;1.33;1.33;;;19.70;75.40;;;;;;5092382;28;20170;-77
2023/06/09 07:08:54;;;;;;;1.23;1.23;;;19.80;75.50;;;;;;5096164;28;20233;-76
2023/06/09 07:11:19;;;;;;;1.50;1.50;;;19.90;75.90;;;;;;5087058;28;20186;-77
2023/06/09 07:13:45;;;;;;;1.10;1.10;;;19.90;74.50;;;;;;5078775;28;20206;-78
2023/06/09 07:16:11;;;;;;;1.70;1.33;;;19.90;74.50;;;;;;5090322;28;20256;-77
2023/06/09 07:18:36;;;;;;;1.33;1.33;;;20.10;75.40;;;;;;5084953;28;20179;-78
2023/06/09 07:21:03;;;;;;;1.42;1.33;;;20.20;75.30;;;;;;5068399;28;20183;-77
2023/06/09 07:23:28;;;;;;;2.22;2.13;;;20.30;75.50;;;;;;5069798;28;20193;-77
2023/06/09 07:25:54;;;;;;;1.75;1.75;;;20.30;74.40;;;;;;5066972;28;20643;-78
2023/06/09 07:28:20;;;;;;;1.73;1.63;;;20.40;74.70;;;;;;5087024;28;20174;-78
2023/06/09 07:30:46;;;;;;;1.58;1.58;;;20.50;75.20;;;;;;5086754;28;20197;-78
2023/06/09 07:33:13;;;;;;;1.67;1.58;;;20.50;74.70;;;;;;5088729;28;20208;-78
2023/06/09 07:35:38;;;;;;;3.80;1.92;;;20.60;74.70;;;;;;5085806;28;20183;-78
2023/06/09 07:38:05;;;;;;;2.42;2.33;;;20.70;74.40;;;;;;5089001;28;20255;-78
2023/06/09 07:40:31;;;;;;;2.85;2.10;;;20.90;74.30;;;;;;5083496;28;20710;-78
2023/06/09 07:42:56;;;;;;;1.73;1.73;;;20.90;73.30;;;;;;5099605;28;20186;-77
2023/06/09 07:45:22;;;;;;;3.05;2.85;;;20.90;74.10;;;;;;5077058;28;20221;-78
2023/06/09 07:47:48;;;;;;;2.95;2.45;;;21.00;74.10;;;;;;5074465;28;20198;-77
2023/06/09 07:50:14;;;;;;;3.58;1.98;;;21.10;74.40;;;;;;5077112;28;20203;-78
2023/06/09 07:52:39;;;;;;;2.08;1.98;;;21.20;74.20;;;;;;5058764;28;20278;-78
2023/06/09 07:55:09;;;;;;;2.05;1.95;;;21.30;74.10;;;;;;5051550;28;20217;-78
2023/06/09 07:57:34;;;;;;;2.65;2.40;;;21.40;74.10;;;;;;5074503;28;20999;-78
2023/06/09 08:00:00;;;;;;;3.47;2.45;;;21.40;73.00;;;;;;5056720;28;20202;-78
2023/06/09 08:02:26;;;;;;;2.22;2.13;;;21.50;73.20;;;;;;5079057;28;20209;-78
2023/06/09 08:04:52;;;;;;;1.98;1.88;;;21.60;73.30;;;;;;5076310;28;21151;-78
2023/06/09 08:07:18;;;;;;;1.85;1.75;;;21.70;74.10;;;;;;5083052;28;20206;-78
2023/06/09 08:09:43;;;;;;;1.95;1.70;;;21.80;74.10;;;;;;5080207;28;20346;-78
2023/06/09 08:12:10;;;;;;;1.42;1.42;;;21.80;72.60;;;;;;5074490;28;20703;-78
2023/06/09 08:14:35;;;;;;;2.25;1.42;;;21.90;73.20;;;;;;5076564;28;20319;-78
2023/06/09 08:17:01;;;;;;;2.05;1.88;;;22.00;73.50;;;;;;5072704;28;20285;-78
2023/06/09 08:19:28;;;;;;;3.83;1.45;;;22.10;73.70;;;;;;5054390;28;20217;-78
2023/06/09 08:21:54;;;;;;;1.45;1.42;;;22.20;73.30;;;;;;5061027;28;20205;-78
2023/06/09 08:24:20;;;;;;;2.47;1.45;;;22.30;72.70;;;;;;5072489;28;20214;-79
2023/06/09 08:26:48;;;;;;;3.58;2.00;;;22.30;72.80;;;;;;5052996;28;20208;-77
2023/06/09 08:29:15;;;;;;;1.77;1.75;;;22.40;72.80;;;;;;5082307;28;20206;-77
2023/06/09 08:31:41;;;;;;;1.98;1.88;;;22.50;72.60;;;;;;5066517;28;20548;-77
2023/06/09 08:34:07;;;;;;;1.70;1.60;;;22.60;72.20;;;;;;5101280;28;20220;-77
2023/06/09 08:36:33;;;;;;;1.55;1.55;;;22.70;72.20;;;;;;5094996;28;20190;-78
2023/06/09 08:38:58;;;;;;;3.20;2.08;;;22.70;72.60;;;;;;5091827;28;20171;-78
2023/06/09 08:41:32;;;;;;;1.90;1.63;;;22.80;72.30;;;;;;5092646;28;20178;-77
2023/06/09 08:43:58;;;;;;;1.83;1.73;;;22.90;72.50;;;;;;5095114;28;20220;-77
2023/06/09 08:46:25;;;;;;;1.40;1.40;;;23.00;72.70;;;;;;5095402;28;20174;-78
2023/06/09 08:48:55;;;;;;;2.30;2.25;;;23.10;72.70;;;;;;5094613;28;20170;-77
2023/06/09 08:51:23;;;;;;;1.42;1.42;;;23.20;71.70;;;;;;5095247;28;20231;-77
2023/06/09 08:53:52;;;;;;;2.40;2.22;;;23.30;71.90;;;;;;5096360;28;20201;-77
2023/06/09 08:56:21;;;;;;;1.42;1.42;;;23.40;72.10;;;;;;5095135;28;20209;-78
2023/06/09 08:58:48;;;;;;;1.90;1.80;;;23.50;71.90;;;;;;5097533;28;20177;-77
2023/06/09 09:01:14;;;;;;;6.75;1.92;;;23.60;71.50;;;;;;5100262;28;20178;-77
2023/06/09 09:03:40;;;;;;;4.30;2.00;;;23.70;70.30;;;;;;5107161;28;20189;-78
2023/06/09 09:06:06;;;;;;;1.80;1.80;;;23.80;70.20;;;;;;5082980;28;20174;-78
2023/06/09 09:08:32;;;;;;;2.40;1.95;;;23.90;71.00;;;;;;5098691;28;20193;-78
2023/06/09 09:10:58;;;;;;;2.15;2.15;;;23.90;70.50;;;;;;5096708;28;20190;-77
2023/06/09 09:13:30;;;;;;;1.88;1.77;;;24.00;70.00;;;;;;5098442;28;20210;-77
2023/06/09 09:15:58;;;;;;;1.85;1.75;;;24.10;70.90;;;;;;5099703;28;20167;-78
2023/06/09 09:18:28;;;;;;;1.80;1.75;;;24.20;69.50;;;;;;5074535;28;20235;-75
2023/06/09 09:20:55;;;;;;;1.88;1.88;;;24.30;69.90;;;;;;5075663;28;20182;-75
2023/06/09 09:23:29;;;;;;;1.67;1.65;;;24.40;68.80;;;;;;5094049;28;20243;-75
2023/06/09 09:25:55;;;;;;;1.90;1.88;;;24.50;69.30;;;;;;5079123;28;20216;-76
2023/06/09 09:28:20;;;;;;;2.00;1.90;;;24.60;69.50;;;;;;5100461;28;20266;-76
2023/06/09 09:30:54;;;;;;;1.90;1.83;;;24.70;68.00;;;;;;5092561;28;20270;-77
2023/06/09 09:33:26;;;;;;;3.20;1.75;;;24.80;67.80;;;;;;5096803;28;20626;-77
2023/06/09 09:35:54;;;;;;;2.92;1.92;;;24.90;67.20;;;;;;5073833;28;20181;-76
2023/06/09 09:38:22;;;;;;;2.50;2.22;;;25.00;67.90;;;;;;5078441;28;20182;-76
2023/06/09 09:40:53;;;;;;;2.72;1.90;;;25.10;65.70;;;;;;5091541;28;20173;-77
2023/06/09 09:43:21;;;;;;;2.20;2.05;;;25.20;65.50;;;;;;5092760;28;20185;-76
2023/06/09 09:45:52;;;;;;;2.15;2.05;;;25.00;63.60;;;;;;5092080;28;20261;-76
2023/06/09 09:48:21;;;;;;;1.50;1.50;;;25.10;65.70;;;;;;5092264;28;20201;-76
2023/06/09 09:50:48;;;;;;;2.08;1.90;;;25.10;65.60;;;;;;5076684;28;20224;-76
2023/06/09 09:53:15;;;;;;;2.08;1.98;;;25.20;66.10;;;;;;5096558;28;20226;-76
2023/06/09 09:55:45;;;;;;;2.03;1.92;;;25.40;67.60;;;;;;5073794;28;20659;-76
2023/06/09 09:58:12;;;;;;;2.00;1.90;;;25.60;66.70;;;;;;5096777;28;20182;-77
2023/06/09 10:00:42;;;;;;;2.33;2.22;;;25.70;66.40;;;;;;5094993;28;20635;-77
2023/06/09 10:03:19;;;;;;;2.50;2.40;;;25.90;65.30;;;;;;5093048;28;20171;-77
2023/06/09 10:05:49;;;;;;;1.83;1.83;;;26.10;65.40;;;;;;5101521;28;20177;-77
2023/06/09 10:08:26;;;;;;;1.92;1.83;;;26.30;64.80;;;;;;5073404;28;20174;-75
2023/06/09 10:10:53;;;;;;;3.05;2.50;;;26.60;62.90;;;;;;5091806;28;20181;-77
2023/06/09 10:13:21;;;;;;;1.90;1.88;;;26.80;62.80;;;;;;5083967;28;20715;-76
2023/06/09 10:15:50;;;;;;;2.20;2.10;;;27.00;62.00;;;;;;5095487;28;20253;-76
2023/06/09 10:18:17;;;;;;;2.10;2.00;;;27.10;61.90;;;;;;5082813;28;20182;-77
2023/06/09 10:20:44;;;;;;;2.47;2.38;;;27.20;62.20;;;;;;5100350;28;20189;-78
2023/06/09 10:23:10;;;;;;;2.38;2.17;;;27.40;60.90;;;;;;5101989;28;20213;-75
2023/06/09 10:25:37;;;;;;;8.52;2.42;;;27.50;59.80;;;;;;5091482;28;20236;-76
2023/06/09 10:28:03;;;;;;;3.65;2.70;;;27.40;60.80;;;;;;5091339;28;20189;-77
2023/06/09 10:30:29;;;;;;;4.90;2.60;;;27.50;61.10;;;;;;5087233;28;20198;-76
2023/06/09 10:33:07;;;;;;;2.38;2.30;;;27.60;59.90;;;;;;5086035;28;20198;-76
2023/06/09 10:35:36;;;;;;;2.80;2.70;;;27.70;60.00;;;;;;5078239;28;20181;-76
2023/06/09 10:38:40;;;;;;;2.45;2.30;;;28.00;61.20;;;;;;5095365;28;20162;-76
2023/06/09 10:41:16;;;;;;;3.08;2.05;;;28.30;59.80;;;;;;5096648;28;20239;-76
2023/06/09 10:44:20;;;;;;;4.75;2.92;;;28.90;59.90;;;;;;5096814;28;20235;-76
2023/06/09 10:46:50;;;;;;;2.63;2.40;;;29.60;58.80;;;;;;5072979;28;20665;-76
2023/06/09 10:49:25;;;;;;;2.30;2.20;;;30.20;56.30;;;;;;5100987;28;20206;-76
2023/06/09 10:51:52;;;;;;;2.00;1.90;;;31.00;52.80;;;;;;5090746;28;20666;-76
2023/06/09 10:54:22;;;;;;;2.38;2.20;;;31.50;53.20;;;;;;5095195;28;20710;-76
2023/06/09 10:57:03;;;;;;;3.13;1.73;;;32.00;50.50;;;;;;5091513;28;20257;-76
2023/06/09 10:59:30;;;;;;;1.58;1.50;;;32.40;49.60;;;;;;5072869;28;20271;-76
2023/06/09 11:02:05;;;;;;;2.17;1.95;;;32.70;51.50;;;;;;5086247;28;20177;-76
2023/06/09 11:04:45;;;;;;;1.77;1.77;;;32.80;48.90;;;;;;5093727;28;20181;-76
2023/06/09 11:07:13;;;;;;;2.10;2.03;;;33.00;49.90;;;;;;5095386;28;20166;-76
2023/06/09 11:09:39;;;;;;;2.50;2.40;;;33.60;49.50;;;;;;5090744;28;20178;-76
2023/06/09 11:12:08;;;;;;;2.30;2.20;;;33.80;49.20;;;;;;5096750;28;20275;-76
2023/06/09 11:14:46;;;;;;;2.08;1.98;;;34.10;49.00;;;;;;5072479;28;20217;-76
2023/06/09 11:17:39;;;;;;;2.85;2.65;;;34.50;49.00;;;;;;5095614;28;20188;-76
2023/06/09 11:20:20;;;;;;;2.28;2.17;;;35.00;47.80;;;;;;5090569;28;20185;-75
2023/06/09 11:22:48;;;;;;;2.75;1.92;;;35.40;48.60;;;;;;5069006;28;20208;-76
2023/06/09 11:25:20;;;;;;;2.38;2.20;;;36.00;47.70;;;;;;5095357;28;20564;-76
2023/06/09 11:27:46;;;;;;;5.05;2.28;;;36.50;46.50;;;;;;5090208;28;20178;-77
2023/06/09 11:30:21;;;;;;;2.10;2.00;;;36.40;45.80;;;;;;5095026;28;20330;-76
2023/06/09 11:32:52;;;;;;;1.90;1.80;;;35.80;48.40;;;;;;5094865;28;20193;-77
2023/06/09 11:35:29;;;;;;;2.17;2.10;;;35.50;46.00;;;;;;5093946;28;20174;-76
2023/06/09 11:37:59;;;;;;;2.58;2.47;;;35.60;46.80;;;;;;5090603;28;20185;-76
2023/06/09 11:40:30;;;;;;;2.03;1.98;;;36.00;46.50;;;;;;5096120;28;20378;-76
2023/06/09 11:42:57;;;;;;;1.63;1.63;;;36.50;46.50;;;;;;5096253;28;20258;-76
2023/06/09 11:45:24;;;;;;;1.45;1.45;;;37.00;45.70;;;;;;5092714;28;20189;-76
2023/06/09 11:47:49;;;;;;;1.88;1.60;;;37.10;48.40;;;;;;5094087;28;20193;-76
2023/06/09 11:50:16;;;;;;;1.88;1.88;;;36.90;48.00;;;;;;5077207;28;20254;-76
2023/06/09 11:52:43;;;;;;;3.17;1.90;;;36.40;49.30;;;;;;5094685;28;20553;-76
2023/06/09 11:55:12;;;;;;;1.60;1.58;;;35.90;51.30;;;;;;5089862;28;20697;-76
2023/06/09 11:57:38;;;;;;;1.23;1.23;;;35.30;51.60;;;;;;5092844;28;20658;-76
2023/06/09 12:00:18;;;;;;;1.40;1.40;;;34.90;50.40;;;;;;5094275;28;20273;-76
2023/06/09 12:02:47;;;;;;;1.40;1.40;;;34.20;53.40;;;;;;5091575;28;20264;-77
2023/06/09 12:05:13;;;;;;;2.95;1.40;;;33.50;54.60;;;;;;5090635;28;20197;-75
2023/06/09 12:07:43;;;;;;;1.88;1.58;;;32.90;52.20;;;;;;5093223;28;20169;-75
2023/06/09 12:10:09;;;;;;;1.20;1.20;;;32.80;53.20;;;;;;5091223;28;20177;-75
2023/06/09 12:12:48;;;;;;;1.15;1.15;;;33.20;54.80;;;;;;5093195;28;20613;-75
2023/06/09 12:15:16;;;;;;;1.27;1.10;;;33.70;53.80;;;;;;5091800;28;20196;-75
2023/06/09 12:17:43;;;;;;;2.28;1.27;;;34.20;52.30;;;;;;5094471;28;20197;-75
2023/06/09 12:20:36;;;;;;;1.10;1.10;;;34.90;53.10;;;;;;5094828;28;20265;-76
2023/06/09 12:23:07;;;;;;;1.58;1.10;;;35.70;50.40;;;;;;5090264;28;20197;-76
2023/06/09 12:25:40;;;;;;;1.38;1.00;;;36.50;51.70;;;;;;5093161;28;20685;-76
2023/06/09 12:28:13;;;;;;;1.27;1.10;;;37.10;48.60;;;;;;5096666;28;20178;-76
2023/06/09 12:30:47;;;;;;;1.25;1.25;;;37.80;47.80;;;;;;5095832;28;20717;-76
2023/06/09 12:33:23;;;;;;;1.40;1.35;;;38.40;47.90;;;;;;5094805;28;20209;-76
2023/06/09 12:35:54;;;;;;;4.68;1.75;;;38.80;48.20;;;;;;5091539;28;20256;-76
2023/06/09 12:38:25;;;;;;;1.10;1.10;;;39.30;47.80;;;;;;5066615;28;20184;-77
2023/06/09 12:40:52;;;;;;;1.70;1.50;;;39.70;45.60;;;;;;5094578;28;20165;-76
2023/06/09 12:43:19;;;;;;;1.30;1.30;;;40.00;47.10;;;;;;5089437;28;20189;-76
2023/06/09 12:46:04;;;;;;;1.10;1.10;;;40.40;44.80;;;;;;5093294;28;20173;-76
2023/06/09 12:48:30;;;;;;;1.25;1.25;;;40.80;45.50;;;;;;5095171;28;20256;-76
2023/06/09 12:50:58;;;;;;;1.08;1.08;;;40.80;45.90;;;;;;5093732;28;20244;-77
2023/06/09 12:53:23;;;;;;;1.42;1.42;;;40.60;46.20;;;;;;5099781;28;20206;-76